Decoded Metar for KS32 ( in ) (IATA:) | Meteo·Mobile Aviation Weather
aviador You're here:

KS32 Decoded Metar

in
Report Time2018-08-21 10:35:00
UTC Time2018-08-21 10:37:15
Flight Rules vfr VFR
Wind290° at 05 kt
W.Rank290° ranks 2
Current wind is below 290° avg. (11.8)
Visibility9999 m
Phenomena:N/A
Clouds:N/A
CeilingNone
Temp11°C
Dew Point11°C (100% RH)
AAT9.5°C
QNH1023 hPa
Raw Report
KS32 211035Z AUTO 29005KT 10SM CLR 11/11 A3020 RMK AO2=

Extra information for KS32:More info

Social comments